フィレンツェ・ペレトラ空港の過去48時間の天気

フィレンツェ・ペレトラ空港 (Firenze / Peretola)

現在時刻: 5/27 10:07 CEST (5/27 08:07 UTC) 以下の時間は現地時間です。

過去48時間のMETAR気象情報
時間 風向 風速(m/s) 視程 気温(℃) 湿度(%) 気圧(hPa) 天気現象
27 09:50 不定 1 10km以上 24 65 1018
27 09:20 不定 1 10km以上 23 73 1018
27 08:50 不定 1 10km以上 22 73 1018
27 08:20 不定 1 10km以上 22 78 1018
27 07:50 不定 1 10km以上 21 78 1018
27 07:20 静穏 0 10km以上 20 83 1018
27 06:50 不定 1 10km以上 18 88 1018
27 06:20 東南東 1 10km以上 17 88 1018
27 05:50 1 10km以上 17 88 1018
27 05:20 東北東 2 10km以上 18 83 1018
27 04:50 不定 1 10km以上 17 94 1018
27 04:20 不定 1 10km以上 19 83 1018
27 03:50 2 10km以上 19 88 1018
27 03:20 東南東 2 10km以上 19 83 1018
27 02:50 不定 1 10km以上 19 83 1018
27 02:20 不定 1 10km以上 19 88 1018
27 01:50 不定 1 10km以上 20 88 1018
27 01:20 不定 1 10km以上 20 88 1018
27 00:50 不定 1 10km以上 21 78 1018
27 00:20 不定 1 10km以上 22 78 1018
26 23:50 不定 1 10km以上 21 78 1018
26 23:20 不定 1 10km以上 23 73 1018
26 22:50 南南東 2 10km以上 24 69 1018
26 22:20 不定 1 10km以上 24 69 1018
26 21:50 不定 1 10km以上 24 69 1018
26 21:20 西 3 10km以上 26 61 1017
26 20:50 不定 1 10km以上 26 58 1017
26 20:20 2 10km以上 28 51 1017
26 19:50 2 10km以上 29 48 1017
26 19:20 3 10km以上 29 48 1017
26 18:50 東北東 3 10km以上 30 49 1016
26 18:20 北東 3 10km以上 30 49 1016
26 17:50 北北東 3 10km以上 30 49 1016
26 17:20 北東 3 10km以上 31 43 1016
26 16:50 不定 2 10km以上 31 43 1016
26 16:20 不定 1 10km以上 31 40 1017
26 15:50 不定 1 10km以上 31 40 1017
26 15:20 不定 2 10km以上 31 43 1017
26 14:50 不定 2 10km以上 31 40 1018
26 14:20 南南西 2 10km以上 30 43 1018
26 13:50 不定 2 10km以上 30 40 1018
26 13:20 不定 1 10km以上 30 43 1018
26 12:50 不定 2 10km以上 29 48 1018
26 12:20 不定 1 10km以上 29 48 1018
26 11:50 南西 2 10km以上 27 54 1018
26 11:20 不定 1 10km以上 26 58 1019
26 10:50 不定 1 10km以上 26 61 1018
26 10:20 不定 1 10km以上 25 65 1018
26 09:50 不定 1 10km以上 23 69 1018
26 09:20 不定 1 10km以上 22 73 1019
26 08:50 不定 1 10km以上 21 78 1019
26 08:20 不定 1 10km以上 20 78 1019
26 07:50 南南東 2 10km以上 18 88 1019
26 07:20 不定 1 10km以上 18 88 1018
26 06:50 1 9000m 16 94 1018
26 06:20 不定 1 9000m 15 94 1018
26 05:50 不定 1 10km以上 16 94 1018
26 05:20 東北東 1 10km以上 16 94 1018
26 04:50 東北東 2 10km以上 15 100 1017
26 04:20 1 10km以上 16 94 1017
26 03:50 東北東 2 10km以上 16 94 1017
26 03:20 1 10km以上 16 88 1017
26 02:50 東北東 1 10km以上 16 94 1017
26 02:20 不定 1 10km以上 17 88 1017
26 01:50 南南西 1 10km以上 19 78 1017
26 01:20 西北西 1 10km以上 17 88 1017
26 00:50 不定 1 10km以上 18 88 1017
26 00:20 不定 1 10km以上 19 83 1017
25 23:50 不定 1 10km以上 19 88 1017
25 23:20 2 10km以上 19 83 1017
25 22:50 不定 1 10km以上 20 73 1017
25 22:20 不定 1 10km以上 21 73 1016
25 21:50 不定 1 10km以上 22 69 1016
25 21:20 南西 3 10km以上 23 65 1015
25 20:50 西南西 4 10km以上 24 61 1015
25 20:20 西南西 4 10km以上 25 61 1015
25 19:50 南西 5 10km以上 26 58 1014
25 19:20 南西 5 10km以上 27 58 1014
25 18:50 南西 5 10km以上 27 58 1014
25 18:20 西 2 10km以上 28 55 1014
25 17:50 西北西 3 10km以上 28 55 1014
25 17:20 西 4 10km以上 28 55 1014
25 16:50 西 4 10km以上 28 58 1014
25 16:20 西 4 10km以上 28 58 1014
25 15:50 西南西 3 10km以上 28 51 1014
25 15:20 西 3 10km以上 28 55 1014
25 14:50 西北西 4 10km以上 28 55 1014
25 14:20 不定 2 10km以上 28 58 1015
25 13:50 西 2 10km以上 26 65 1015
25 13:20 不定 2 9000m 26 65 1015
25 12:50 不定 2 9000m 25 65 1015
25 12:20 不定 1 9000m 24 69 1016
25 11:50 不定 1 8000m 23 69 1016
25 11:20 不定 1 8000m 22 73 1016
25 10:50 不定 1 7000m 21 73 1016
25 10:20 不定 1 6000m 20 83 1016
LIRQ 270750Z VRB01KT CAVOK 24/17 Q1018
LIRQ 270720Z VRB02KT CAVOK 23/18 Q1018
LIRQ 270650Z VRB01KT CAVOK 22/17 Q1018
LIRQ 270620Z VRB02KT CAVOK 22/18 Q1018
LIRQ 270550Z VRB01KT CAVOK 21/17 Q1018
LIRQ 270520Z 00000KT CAVOK 20/17 Q1018
LIRQ 270450Z VRB01KT CAVOK 18/16 Q1018
LIRQ 270420Z 11001KT CAVOK 17/15 Q1018
LIRQ 270350Z 08001KT CAVOK 17/15 Q1018
LIRQ 270320Z 06003KT CAVOK 18/15 Q1018
LIRQ 270250Z VRB02KT CAVOK 17/16 Q1018
LIRQ 270220Z VRB02KT CAVOK 19/16 Q1018
LIRQ 270150Z 19003KT 170V240 CAVOK 19/17 Q1018
LIRQ 270120Z 11003KT 080V150 CAVOK 19/16 Q1018
LIRQ 270050Z VRB02KT CAVOK 19/16 Q1018
LIRQ 270020Z VRB02KT CAVOK 19/17 Q1018
LIRQ 262350Z VRB01KT CAVOK 20/18 Q1018
LIRQ 262320Z VRB01KT CAVOK 20/18 Q1018
LIRQ 262250Z VRB02KT CAVOK 21/17 Q1018
LIRQ 262220Z VRB01KT CAVOK 22/18 Q1018
LIRQ 262150Z VRB01KT CAVOK 21/17 Q1018
LIRQ 262120Z VRB02KT CAVOK 23/18 Q1018
LIRQ 262050Z 16003KT 060V210 CAVOK 24/18 Q1018
LIRQ 262020Z VRB02KT CAVOK 24/18 Q1018
LIRQ 261950Z VRB02KT CAVOK 24/18 Q1018
LIRQ 261920Z 26005KT CAVOK 26/18 Q1017
LIRQ 261850Z VRB02KT CAVOK 26/17 Q1017
LIRQ 261820Z 01003KT CAVOK 28/17 Q1017
LIRQ 261750Z 36004KT 330V030 9999 FEW060 29/17 Q1017
LIRQ 261720Z 01005KT 9999 FEW060 29/17 Q1017
LIRQ 261650Z 06006KT 9999 FEW060 30/18 Q1016
LIRQ 261620Z 04005KT 9999 FEW045 30/18 Q1016
LIRQ 261550Z 02005KT 9999 FEW040 30/18 Q1016
LIRQ 261520Z 05005KT 020V100 9999 FEW040 31/17 Q1016
LIRQ 261450Z VRB04KT 9999 FEW040 31/17 Q1016
LIRQ 261420Z VRB02KT 9999 FEW040 31/16 Q1017
LIRQ 261350Z VRB02KT 9999 FEW040 31/16 Q1017
LIRQ 261320Z VRB03KT 9999 FEW040 31/17 Q1017
LIRQ 261250Z VRB03KT 9999 FEW040 31/16 Q1018
LIRQ 261220Z 20004KT 160V280 9999 FEW040 30/16 Q1018
LIRQ 261150Z VRB03KT 9999 FEW040 30/15 Q1018
LIRQ 261120Z VRB02KT 9999 FEW030 30/16 Q1018
LIRQ 261050Z VRB03KT 9999 FEW030 29/17 Q1018
LIRQ 261020Z VRB01KT 9999 FEW030 29/17 Q1018
LIRQ 260950Z 23004KT 190V360 CAVOK 27/17 Q1018
LIRQ 260920Z VRB02KT CAVOK 26/17 Q1019
LIRQ 260850Z VRB02KT CAVOK 26/18 Q1018
LIRQ 260820Z VRB02KT CAVOK 25/18 Q1018
LIRQ 260750Z VRB02KT CAVOK 23/17 Q1018
LIRQ 260720Z VRB02KT CAVOK 22/17 Q1019
LIRQ 260650Z VRB02KT CAVOK 21/17 Q1019
LIRQ 260620Z VRB01KT CAVOK 20/16 Q1019
LIRQ 260550Z 16003KT CAVOK 18/16 Q1019
LIRQ 260520Z VRB01KT CAVOK 18/16 Q1018
LIRQ 260450Z 10002KT 9000 NSC 16/15 Q1018
LIRQ 260420Z VRB01KT 9000 NSC 15/14 Q1018
LIRQ 260350Z VRB01KT CAVOK 16/15 Q1018
LIRQ 260320Z 06001KT CAVOK 16/15 Q1018
LIRQ 260250Z 07003KT CAVOK 15/15 Q1017
LIRQ 260220Z 08002KT CAVOK 16/15 Q1017
LIRQ 260150Z 06004KT CAVOK 16/15 Q1017
LIRQ 260120Z 09002KT CAVOK 16/14 Q1017
LIRQ 260050Z 07002KT CAVOK 16/15 Q1017
LIRQ 260020Z VRB01KT CAVOK 17/15 Q1017
LIRQ 252350Z 20002KT CAVOK 19/15 Q1017
LIRQ 252320Z 30001KT CAVOK 17/15 Q1017
LIRQ 252250Z VRB01KT CAVOK 18/16 Q1017
LIRQ 252220Z VRB01KT CAVOK 19/16 Q1017
LIRQ 252150Z VRB02KT CAVOK 19/17 Q1017
LIRQ 252120Z 08003KT CAVOK 19/16 Q1017
LIRQ 252050Z VRB01KT CAVOK 20/15 Q1017
LIRQ 252020Z VRB02KT CAVOK 21/16 Q1016
LIRQ 251950Z VRB02KT CAVOK 22/16 Q1016
LIRQ 251920Z 22006KT CAVOK 23/16 Q1015
LIRQ 251850Z 24008KT CAVOK 24/16 Q1015
LIRQ 251820Z 24008KT CAVOK 25/17 Q1015
LIRQ 251750Z 22009KT 9999 FEW080 26/17 Q1014
LIRQ 251720Z 23010KT 9999 SCT080 27/18 Q1014
LIRQ 251650Z 23009KT 9999 FEW030 SCT080 27/18 Q1014
LIRQ 251620Z 28004KT 190V310 9999 FEW030 28/18 Q1014
LIRQ 251550Z 29005KT 260V320 9999 FEW030TCU 28/18 Q1014
LIRQ 251520Z 28007KT 240V310 9999 FEW030TCU SCT040 28/18 Q1014
LIRQ 251450Z 26007KT 220V300 9999 FEW030TCU 28/19 Q1014
LIRQ 251420Z 26007KT 210V320 9999 FEW030TCU 28/19 Q1014
LIRQ 251350Z 25006KT 210V300 9999 FEW030 28/17 Q1014
LIRQ 251320Z 27005KT 210V310 9999 FEW030 28/18 Q1014
LIRQ 251250Z 30007KT 270V330 9999 FEW025 28/18 Q1014
LIRQ 251220Z VRB04KT 9999 FEW025 28/19 Q1015
LIRQ 251150Z 27004KT 210V020 9999 FEW025 26/19 Q1015
LIRQ 251120Z VRB04KT 9000 FEW030 26/19 Q1015
LIRQ 251050Z VRB03KT 9000 FEW010 25/18 Q1015
LIRQ 251020Z VRB02KT 9000 FEW010 24/18 Q1016
LIRQ 250950Z VRB02KT 8000 FEW010 23/17 Q1016
LIRQ 250920Z VRB02KT 8000 FEW010 22/17 Q1016
LIRQ 250850Z VRB02KT 7000 SCT010 21/16 Q1016
LIRQ 250820Z VRB02KT 6000 SCT010 20/17 Q1016